Nearby METAR Reports

 

KIND - Indianapolis, Indiana, USA
Distance from station: SW 6mi, 9km
Updated: Nov 14 2018 8:54am
Mostly Cloudy
Mostly Cloudy
 Wind from NE
Wind: NE 9 mph , 15 km/h
Temperature: 23°F , -5°C
Wind Chill: 13°F , -11°C
Dew Point: 14°F , -10°C
Humidity: 68%
Barometer: 30.55 inHg , 1034.5 hPa
Clouds: Mostly Cloudy
Visibility: 10 miles , 16 km
Cloud details: Few Clouds 20000 ft
Mostly Cloudy 25000 ft
2018/11/14 13:54 KIND 141354Z 04008KT 10SM FEW200 BKN250 M05/M10 A3055 RMK AO2 SLP355 T10501100
KEYE - Indianapolis, Indiana, USA
Distance from station: NW 5mi, 8km
Updated: Nov 14 2018 8:53am
Clear
Clear
 Wind from NE
Wind: NE 5 mph , 7 km/h
Temperature: 23°F , -5°C
Wind Chill: 17°F , -8°C
Dew Point: 12°F , -11°C
Humidity: 63%
Barometer: 30.54 inHg , 1034.2 hPa
Clouds: Clear
Visibility: 10 miles , 16 km
2018/11/14 13:53 KEYE 141353Z AUTO 04004KT 10SM CLR M05/M11 A3054 RMK AO2 SLP353 T10501106
 
KTYQ - Indianapolis Exc, Indiana, USA
Distance from station: N 17mi, 28km
Updated: Nov 14 2018 8:55am
Clear
Clear
 Wind from NNE
Wind: NNE 5 mph , 7 km/h
Temperature: 19°F , -7°C
Wind Chill: 12°F , -11°C
Dew Point: 16°F , -9°C
Humidity: 86%
Barometer: 30.55 inHg , 1034.5 hPa
Clouds: Clear
Visibility: 10 miles , 16 km
2018/11/14 13:55 KTYQ 141355Z AUTO 02004KT 10SM CLR M07/M09 A3055 RMK AO2 T10671091
KGEZ - Shelbyville, Indiana, USA
Distance from station: ESE 27mi, 43km
Updated: Nov 14 2018 8:53am
Clear
Clear
 Wind from ENE
Wind: ENE 6 mph , 9 km/h
Temperature: 25°F , -4°C
Wind Chill: 18°F , -8°C
Dew Point: 16°F , -9°C
Humidity: 69%
Barometer: 30.54 inHg , 1034.2 hPa
Clouds: Clear
Visibility: 10 miles , 16 km
2018/11/14 13:53 KGEZ 141353Z AUTO 06005KT 10SM CLR M04/M09 A3054 RMK AO2 SLP354 T10391089
 
KAID - Anderson Municip, Indiana, USA
Distance from station: NE 40mi, 64km
Updated: Nov 14 2018 9:15am
Clear
Clear
 Wind from calm
Wind: Calm
Temperature: 21°F , -6°C
Dew Point: 18°F , -8°C
Humidity: 86%
Barometer: 30.56 inHg , 1034.9 hPa
Clouds: Clear
Visibility: 10 miles , 16 km
2018/11/14 14:15 KAID 141415Z AUTO 00000KT 10SM CLR M06/M08 A3056 RMK AO2 T10561079
KBAK - Columbus/Balkala, Indiana, USA
Distance from station: SSE 40mi, 64km
Updated: Nov 14 2018 7:59am
Clear
Clear
 Wind from calm
Wind: Calm
Temperature: 19°F , -7°C
Dew Point: 12°F , -11°C
Humidity: 73%
Barometer: 30.54 inHg , 1034.2 hPa
Clouds: Clear
Visibility: 10 miles , 16 km
2018/11/14 12:59 KBAK 141259Z COR 00000KT 10SM SKC M07/M11 A3054
 
KBMG - Bloomington, Indiana, USA
Distance from station: SSW 48mi, 78km
Updated: Nov 14 2018 8:53am
Clear
Clear
 Wind from E
Wind: E 8 mph , 13 km/h
Temperature: 25°F , -4°C
Wind Chill: 16°F , -9°C
Dew Point: 18°F , -8°C
Humidity: 74%
Barometer: 30.54 inHg , 1034.2 hPa
Clouds: Clear
Visibility: 10 miles , 16 km
2018/11/14 13:53 KBMG 141353Z 09007KT 10SM CLR M04/M08 A3054 RMK AO2 SLP352 T10441083
KOKK - Kokomo, Indiana, USA
Distance from station: N 53mi, 85km
Updated: Nov 14 2018 8:56am
Clear
Clear
 Wind from calm
Wind: Calm
Temperature: 21°F , -6°C
Dew Point: 18°F , -8°C
Humidity: 86%
Barometer: 30.56 inHg , 1034.9 hPa
Clouds: Clear
Visibility: 10 miles , 16 km
2018/11/14 13:56 KOKK 141356Z AUTO 00000KT 10SM CLR M06/M08 A3056 RMK AO2 SLP363 T10611083 FZRANO